Time;durP1;ratioP1;P1;durP2;ratioP2;P2;SDS_P1;SDS_P2;PMS_P1;PMS_P2;Temp;Humidity;BMP_temperature;BMP_pressure;BME280_temperature;BME280_humidity;BME280_pressure;Samples;Min_cycle;Max_cycle;Signal;HPM_P1;HPM_P2
2020/12/08 00:00:33;;;;;;;7.60;6.50;;;6.40;99.90;;;4.02;100.00;99253.63;5009459;27;101473;-63
2020/12/08 00:03:00;;;;;;;7.67;6.87;;;6.40;99.90;;;4.03;100.00;99251.81;5017645;27;100671;-62
2020/12/08 00:05:26;;;;;;;8.90;7.80;;;6.30;99.90;;;3.99;100.00;99235.38;5020390;27;100050;-62
2020/12/08 00:07:53;;;;;;;9.87;7.63;;;6.30;99.90;;;4.01;100.00;99240.53;5012291;27;100180;-63
2020/12/08 00:10:20;;;;;;;7.23;6.47;;;6.30;99.90;;;4.03;100.00;99249.16;5026887;27;100929;-62
2020/12/08 00:12:49;;;;;;;9.07;7.00;;;6.30;99.90;;;4.03;100.00;99250.00;5024646;27;100613;-63
2020/12/08 00:15:17;;;;;;;7.97;7.00;;;6.30;99.90;;;4.06;100.00;99251.53;5028311;27;99985;-63
2020/12/08 00:17:45;;;;;;;8.53;6.90;;;6.40;99.90;;;4.03;100.00;99260.59;5025615;27;99944;-63
2020/12/08 00:20:12;;;;;;;8.23;7.10;;;6.40;99.90;;;4.05;100.00;99261.28;5010641;27;100349;-62
2020/12/08 00:22:38;;;;;;;8.63;7.20;;;6.40;99.90;;;4.07;100.00;99262.00;5028307;27;100610;-63
2020/12/08 00:25:06;;;;;;;8.33;7.10;;;6.30;99.90;;;4.08;100.00;99266.28;5027210;27;100343;-63
2020/12/08 00:27:33;;;;;;;7.43;6.53;;;6.30;99.90;;;4.09;100.00;99262.66;5028567;27;100101;-64
2020/12/08 00:30:00;;;;;;;8.43;7.03;;;6.30;99.90;;;4.07;100.00;99267.28;5008509;27;100883;-63
2020/12/08 00:32:26;;;;;;;7.43;6.50;;;5.20;99.90;;;4.08;100.00;99270.75;5007621;27;101095;-63
2020/12/08 00:34:53;;;;;;;8.77;7.10;;;6.40;99.90;;;4.04;100.00;99256.97;5005877;27;100051;-63
2020/12/08 00:37:19;;;;;;;8.47;7.37;;;6.40;99.90;;;4.03;100.00;99276.47;5019177;27;99987;-63
2020/12/08 00:39:45;;;;;;;8.27;6.97;;;6.40;99.90;;;4.00;100.00;99271.44;5027895;27;101487;-63
2020/12/08 00:42:12;;;;;;;11.30;7.60;;;6.50;99.90;;;4.03;100.00;99268.53;5028382;27;100663;-63
2020/12/08 00:44:40;;;;;;;9.23;6.90;;;6.50;99.90;;;4.04;100.00;99261.44;5028424;27;100082;-63
2020/12/08 00:47:06;;;;;;;9.20;7.00;;;6.50;99.90;;;4.02;100.00;99258.09;5015674;27;100130;-62
2020/12/08 00:49:33;;;;;;;9.00;7.17;;;6.60;99.90;;;4.03;100.00;99257.94;5005152;27;103207;-62
2020/12/08 00:51:59;;;;;;;8.50;7.37;;;6.50;99.90;;;4.05;100.00;99256.00;5008564;27;100462;-62
2020/12/08 00:54:28;;;;;;;8.43;7.50;;;6.50;99.90;;;4.09;100.00;99253.88;5023059;27;99959;-62
2020/12/08 00:56:54;;;;;;;8.93;7.57;;;6.50;99.90;;;4.09;100.00;99251.22;5025463;27;100607;-62
2020/12/08 00:59:21;;;;;;;8.00;7.03;;;6.50;99.90;;;4.09;100.00;99260.00;5022270;27;102766;-62
2020/12/08 01:01:51;;;;;;;8.47;7.27;;;6.50;99.90;;;4.11;100.00;99268.66;5022319;27;102517;-62
2020/12/08 01:04:18;;;;;;;8.37;7.13;;;6.60;99.90;;;4.09;100.00;99264.47;5010016;27;100287;-62
2020/12/08 01:06:45;;;;;;;10.77;8.70;;;6.50;99.90;;;4.06;100.00;99267.41;4986263;28;100127;-62
2020/12/08 01:09:12;;;;;;;9.43;8.27;;;6.60;99.90;;;4.07;100.00;99258.50;4991253;27;100787;-62
2020/12/08 01:11:42;;;;;;;11.30;8.17;;;6.60;99.90;;;4.05;100.00;99255.16;4986424;27;101519;-63
2020/12/08 01:14:10;;;;;;;9.60;7.83;;;6.60;99.90;;;3.98;100.00;99250.41;4984692;28;100404;-62
2020/12/08 01:16:38;;;;;;;9.40;8.00;;;6.60;99.90;;;3.98;100.00;99242.47;5000566;27;100230;-64
2020/12/08 01:19:07;;;;;;;10.43;8.67;;;6.50;99.90;;;3.98;100.00;99236.34;4984614;28;101658;-62
2020/12/08 01:21:34;;;;;;;10.53;8.93;;;6.50;99.90;;;3.98;100.00;99245.13;5000263;27;103163;-63
2020/12/08 01:24:01;;;;;;;9.83;7.73;;;6.80;99.90;;;4.05;100.00;99244.56;5022024;27;100060;-64
2020/12/08 01:26:28;;;;;;;11.93;8.30;;;6.60;99.90;;;4.05;100.00;99245.41;4991701;27;100202;-63
2020/12/08 01:28:58;;;;;;;9.13;8.13;;;6.50;99.90;;;4.07;100.00;99242.63;4984597;28;103311;-62
2020/12/08 01:31:33;;;;;;;8.97;8.07;;;6.40;99.90;;;4.08;100.00;99239.00;4998979;27;100199;-63
2020/12/08 01:34:07;;;;;;;12.73;8.30;;;6.50;99.90;;;4.07;100.00;99242.63;5007500;27;100106;-63
2020/12/08 01:36:34;;;;;;;10.37;9.07;;;6.50;99.90;;;4.08;100.00;99242.44;5021792;27;100715;-63
2020/12/08 01:39:01;;;;;;;11.63;8.63;;;6.40;99.90;;;4.09;100.00;99240.63;5020814;27;103098;-62
2020/12/08 01:41:28;;;;;;;10.70;8.67;;;6.40;99.90;;;4.06;100.00;99241.78;5015244;27;102259;-63
2020/12/08 01:43:55;;;;;;;10.90;8.70;;;6.30;99.90;;;4.03;100.00;99241.22;4984812;28;99974;-63
2020/12/08 01:46:27;;;;;;;11.63;9.43;;;6.20;99.90;;;4.03;100.00;99236.78;4986442;27;100102;-62
2020/12/08 01:48:55;;;;;;;11.30;9.10;;;6.30;99.90;;;4.01;100.00;99219.34;4984057;28;102941;-63
2020/12/08 01:51:24;;;;;;;10.90;8.93;;;7.60;99.90;;;3.96;100.00;99217.97;4984794;27;102688;-63
2020/12/08 01:53:52;;;;;;;11.53;9.50;;;6.30;99.90;;;3.92;100.00;99208.66;4984673;28;100180;-64
2020/12/08 01:56:24;;;;;;;9.93;8.70;;;6.10;99.90;;;3.90;100.00;99212.41;4985237;28;100264;-64
2020/12/08 01:58:56;;;;;;;11.80;8.67;;;6.10;99.90;;;3.85;100.00;99212.00;5005400;27;102310;-62
2020/12/08 02:01:24;;;;;;;10.37;8.70;;;6.00;99.90;;;3.86;100.00;99208.38;5024428;27;101095;-62
2020/12/08 02:03:51;;;;;;;11.47;9.20;;;6.00;99.90;;;3.86;100.00;99213.66;5026769;27;100110;-63
2020/12/08 02:06:17;;;;;;;13.47;10.23;;;6.00;99.90;;;3.92;100.00;99210.47;5024430;27;100401;-63
2020/12/08 02:08:45;;;;;;;13.70;10.80;;;6.00;99.90;;;3.94;100.00;99216.44;5024051;27;102665;-63
2020/12/08 02:11:20;;;;;;;13.07;10.13;;;6.00;99.90;;;3.98;100.00;99226.59;5040899;27;102500;-63
2020/12/08 02:13:48;;;;;;;12.53;9.27;;;6.00;99.90;;;4.02;100.00;99221.84;5021420;27;100053;-63
2020/12/08 02:16:15;;;;;;;11.30;9.97;;;6.00;99.90;;;4.08;100.00;99223.91;5003821;27;100266;-62
2020/12/08 02:18:42;;;;;;;13.57;10.57;;;6.10;99.90;;;4.10;100.00;99224.63;5023819;27;103041;-62
2020/12/08 02:21:09;;;;;;;14.07;10.77;;;6.30;99.90;;;4.12;100.00;99225.31;5024129;27;102674;-62
2020/12/08 02:23:50;;;;;;;12.97;11.03;;;6.20;99.90;;;4.17;100.00;99220.44;5024228;27;100312;-63
2020/12/08 02:26:17;;;;;;;13.27;10.93;;;6.20;99.90;;;4.29;100.00;99229.03;5024242;27;100460;-63
2020/12/08 02:28:44;;;;;;;13.83;10.97;;;6.20;99.90;;;4.25;100.00;99230.31;5025146;27;103285;-63
2020/12/08 02:31:14;;;;;;;14.23;11.60;;;6.30;99.90;;;4.28;100.00;99230.84;5025511;27;102614;-63
2020/12/08 02:33:41;;;;;;;13.73;10.80;;;6.20;99.90;;;4.29;100.00;99231.69;5010209;27;100132;-63
2020/12/08 02:36:09;;;;;;;15.20;11.17;;;6.30;99.90;;;4.30;100.00;99239.50;5007446;27;100239;-63
2020/12/08 02:38:37;;;;;;;15.77;11.53;;;6.40;99.90;;;4.34;100.00;99234.72;5007427;27;101486;-63
2020/12/08 02:41:04;;;;;;;16.07;11.80;;;6.40;99.90;;;4.36;100.00;99235.41;5014391;27;103008;-63
2020/12/08 02:43:34;;;;;;;12.90;11.07;;;6.30;99.90;;;4.41;100.00;99235.84;5010565;27;100434;-63
2020/12/08 02:46:01;;;;;;;14.13;11.20;;;6.40;99.90;;;4.40;100.00;99235.97;5011685;27;100057;-63
2020/12/08 02:48:28;;;;;;;12.60;11.00;;;6.50;99.90;;;4.42;100.00;99234.03;5024235;27;103161;-63
2020/12/08 02:50:54;;;;;;;13.73;11.47;;;6.50;99.90;;;4.47;100.00;99229.94;5008803;27;101440;-63
2020/12/08 02:53:22;;;;;;;13.73;11.53;;;6.50;99.90;;;4.46;100.00;99233.56;5023781;27;100069;-63
2020/12/08 02:55:49;;;;;;;13.00;11.30;;;6.40;99.90;;;4.48;100.00;99233.44;5007083;27;100128;-63
2020/12/08 02:58:20;;;;;;;15.60;11.80;;;6.50;99.90;;;4.47;100.00;99224.66;5006652;27;102382;-63
2020/12/08 03:00:48;;;;;;;14.30;12.50;;;6.60;99.90;;;4.50;100.00;99226.19;5006967;27;100820;-63
2020/12/08 03:03:14;;;;;;;15.53;12.70;;;6.60;99.90;;;4.54;100.00;99227.56;5023877;27;100145;-63
2020/12/08 03:05:40;;;;;;;17.20;11.90;;;6.60;99.90;;;4.49;100.00;99227.16;5027130;27;100095;-63
2020/12/08 03:08:07;;;;;;;14.23;11.87;;;6.50;99.90;;;4.34;100.00;99238.22;5029105;27;101459;-63
2020/12/08 03:10:35;;;;;;;15.10;11.60;;;6.60;99.90;;;4.33;100.00;99241.00;5027477;27;102276;-63
2020/12/08 03:13:01;;;;;;;13.50;10.87;;;6.50;99.90;;;4.29;100.00;99237.00;5040171;27;100306;-62
2020/12/08 03:15:30;;;;;;;13.03;10.30;;;6.60;99.90;;;4.33;100.00;99235.69;5006696;27;100182;-63
2020/12/08 03:17:57;;;;;;;14.97;10.47;;;6.70;99.90;;;4.30;100.00;99236.84;5013619;27;102884;-63
2020/12/08 03:20:26;;;;;;;15.63;10.83;;;6.60;99.90;;;4.27;100.00;99236.28;5026577;27;102341;-62
2020/12/08 03:22:53;;;;;;;13.50;11.83;;;6.50;99.90;;;4.19;100.00;99228.25;5026911;27;100140;-62
2020/12/08 03:25:19;;;;;;;13.87;10.40;;;6.50;99.90;;;4.17;100.00;99232.84;5023952;27;100429;-62
2020/12/08 03:27:49;;;;;;;15.90;11.90;;;6.50;99.90;;;4.18;100.00;99231.88;5006874;27;102440;-63
2020/12/08 03:30:16;;;;;;;14.93;11.43;;;6.50;99.90;;;4.17;100.00;99238.97;5005748;27;102403;-62
2020/12/08 03:32:47;;;;;;;12.60;10.27;;;6.50;99.90;;;4.30;100.00;99230.72;5006881;27;99978;-63
2020/12/08 03:35:17;;;;;;;14.93;12.07;;;6.40;99.90;;;4.13;100.00;99234.94;5034590;27;100423;-64
2020/12/08 03:37:43;;;;;;;14.83;10.43;;;6.40;99.90;;;4.18;100.00;99232.69;5008611;27;101324;-64
2020/12/08 03:40:13;;;;;;;16.03;12.87;;;6.40;99.90;;;4.28;100.00;99227.38;5005315;27;102622;-63
2020/12/08 03:42:39;;;;;;;16.13;13.07;;;6.30;99.90;;;4.23;100.00;99229.59;5006692;27;100032;-63
2020/12/08 03:45:08;;;;;;;17.33;13.83;;;6.30;99.90;;;4.21;100.00;99224.44;5019926;27;100340;-63
2020/12/08 03:47:45;;;;;;;16.10;12.60;;;6.30;99.90;;;4.11;100.00;99225.47;5026111;27;102802;-63
2020/12/08 03:50:15;;;;;;;18.77;13.80;;;6.20;99.90;;;4.10;100.00;99229.91;5039144;27;100105;-63
2020/12/08 03:52:43;;;;;;;20.33;13.83;;;6.10;99.90;;;4.14;100.00;99236.59;5006554;27;100169;-62
2020/12/08 03:55:09;;;;;;;17.03;14.30;;;6.00;99.90;;;4.11;100.00;99236.88;5006154;27;100138;-63
2020/12/08 03:57:37;;;;;;;19.60;14.50;;;6.00;99.90;;;4.08;100.00;99231.06;5006167;27;100249;-63
2020/12/08 04:00:08;;;;;;;20.37;15.33;;;6.60;99.90;;;4.15;100.00;99234.78;5005115;27;102764;-64
2020/12/08 04:02:39;;;;;;;18.20;14.50;;;6.00;99.90;;;4.18;100.00;99242.47;5024073;27;100319;-63
2020/12/08 04:05:11;;;;;;;21.13;15.30;;;5.80;99.90;;;4.19;100.00;99244.13;5026343;27;99948;-64
2020/12/08 04:07:41;;;;;;;18.73;15.30;;;5.90;99.90;;;4.21;100.00;99231.56;5028943;27;102627;-63
2020/12/08 04:10:07;;;;;;;20.97;15.23;;;5.60;99.90;;;4.23;100.00;99237.53;5005144;27;102412;-62
2020/12/08 04:12:34;;;;;;;21.90;15.57;;;5.80;99.90;;;4.23;100.00;99245.50;5006060;27;100294;-62
2020/12/08 04:15:03;;;;;;;19.87;15.33;;;5.70;99.90;;;4.22;100.00;99254.41;5006142;27;100172;-63
2020/12/08 04:17:32;;;;;;;25.17;17.07;;;5.70;99.90;;;4.19;100.00;99252.91;5006334;27;102797;-63
2020/12/08 04:19:59;;;;;;;20.53;16.53;;;5.60;99.90;;;4.15;100.00;99253.31;5005660;27;102284;-63
2020/12/08 04:22:25;;;;;;;22.27;16.03;;;5.70;99.90;;;4.21;100.00;99250.09;5010671;27;100692;-63
2020/12/08 04:24:52;;;;;;;22.17;15.87;;;5.60;99.90;;;4.15;100.00;99255.97;5043439;27;100342;-63
2020/12/08 04:27:18;;;;;;;20.70;16.73;;;5.70;99.90;;;4.09;100.00;99259.16;5026082;27;102702;-63
2020/12/08 04:29:51;;;;;;;19.63;15.27;;;5.70;99.90;;;4.11;100.00;99260.72;5024752;27;102636;-63
2020/12/08 04:32:23;;;;;;;21.17;16.50;;;5.60;99.90;;;4.00;100.00;99271.44;5025937;27;100510;-63
2020/12/08 04:34:50;;;;;;;22.00;15.97;;;5.40;99.90;;;3.96;100.00;99272.69;5028103;27;100075;-63
2020/12/08 04:37:16;;;;;;;19.47;15.70;;;5.40;99.90;;;3.81;100.00;99264.38;5027950;27;101018;-64
2020/12/08 04:39:43;;;;;;;22.00;16.83;;;5.60;99.90;;;3.84;100.00;99263.25;5023950;27;100665;-64
2020/12/08 04:42:12;;;;;;;22.33;16.93;;;5.50;99.90;;;3.79;100.00;99273.44;5028690;27;100040;-63
2020/12/08 04:44:39;;;;;;;21.33;16.50;;;5.50;99.90;;;3.80;100.00;99264.50;5026512;27;100198;-63
2020/12/08 04:47:13;;;;;;;23.77;17.40;;;5.40;99.90;;;3.68;100.00;99271.75;5027934;27;100735;-63
2020/12/08 04:49:39;;;;;;;21.33;16.70;;;5.30;99.90;;;3.67;100.00;99270.09;5016515;27;100478;-62
2020/12/08 04:52:07;;;;;;;22.87;15.90;;;5.50;99.90;;;3.69;100.00;99278.72;5007246;27;99916;-63
2020/12/08 04:54:33;;;;;;;19.40;14.67;;;5.40;99.90;;;3.73;100.00;99280.09;5007970;27;99901;-63
2020/12/08 04:56:59;;;;;;;20.63;15.70;;;5.50;99.90;;;3.65;100.00;99282.63;5006854;27;100659;-63
2020/12/08 04:59:26;;;;;;;24.70;17.80;;;6.70;99.90;;;3.70;100.00;99283.03;5006979;27;100383;-63
2020/12/08 05:01:52;;;;;;;19.90;16.30;;;5.60;99.90;;;3.61;100.00;99279.41;5007057;27;100408;-63
2020/12/08 05:04:24;;;;;;;21.97;17.03;;;5.40;99.90;;;3.53;100.00;99286.38;5007420;27;100067;-62
2020/12/08 05:07:02;;;;;;;21.93;16.50;;;5.60;99.90;;;3.56;100.00;99288.75;5007274;27;100465;-62
2020/12/08 05:09:30;;;;;;;20.13;16.77;;;5.50;99.90;;;3.63;100.00;99286.38;5006957;27;101244;-63
2020/12/08 05:11:58;;;;;;;19.93;16.37;;;5.60;99.90;;;3.61;100.00;99289.13;5006659;27;100237;-62
2020/12/08 05:14:24;;;;;;;21.77;17.57;;;5.60;99.90;;;3.66;100.00;99299.31;5007511;27;100187;-62
2020/12/08 05:17:02;;;;;;;22.20;16.40;;;5.60;99.90;;;3.64;100.00;99296.81;5013111;27;100881;-62
2020/12/08 05:19:29;;;;;;;20.77;15.43;;;5.50;99.90;;;3.67;100.00;99295.72;5023045;27;100468;-62
2020/12/08 05:21:55;;;;;;;20.73;16.17;;;5.60;99.90;;;3.65;100.00;99301.13;5006967;27;99944;-62
2020/12/08 05:24:27;;;;;;;18.37;16.00;;;5.70;99.90;;;3.54;100.00;99302.09;5005004;27;100242;-63
2020/12/08 05:26:57;;;;;;;20.37;15.90;;;5.60;99.90;;;3.54;100.00;99298.63;5007240;27;100902;-62
2020/12/08 05:29:23;;;;;;;20.73;16.07;;;4.00;99.90;;;3.48;100.00;99296.50;5007098;27;100506;-61
2020/12/08 05:31:50;;;;;;;21.93;15.90;;;5.60;99.90;;;3.44;100.00;99300.41;5004779;27;100390;-63
2020/12/08 05:34:20;;;;;;;20.40;15.70;;;5.70;99.90;;;3.38;100.00;99296.50;5004867;27;100506;-63
2020/12/08 05:36:49;;;;;;;23.03;16.63;;;5.40;99.90;;;3.45;100.00;99300.28;5006420;27;100839;-64
2020/12/08 05:39:21;;;;;;;22.77;15.97;;;5.60;99.90;;;3.35;100.00;99294.13;5007185;27;101159;-64
2020/12/08 05:41:49;;;;;;;21.13;15.50;;;4.50;99.90;;;3.38;100.00;99290.38;5006465;27;100050;-63
2020/12/08 05:44:23;;;;;;;22.23;17.30;;;5.50;99.90;;;3.39;100.00;99284.94;5007299;27;100023;-63
2020/12/08 05:46:51;;;;;;;22.00;17.63;;;5.50;99.90;;;3.46;100.00;99291.34;5006193;27;100953;-63
2020/12/08 05:49:19;;;;;;;21.67;16.53;;;5.40;99.90;;;3.42;100.00;99282.03;5007194;27;100058;-64
2020/12/08 05:51:48;;;;;;;21.93;16.13;;;7.20;99.90;;;3.42;100.00;99305.84;5006323;27;100260;-64
2020/12/08 05:54:19;;;;;;;21.93;16.87;;;5.50;99.90;;;3.38;100.00;99299.16;5007015;27;100182;-64
2020/12/08 05:56:45;;;;;;;23.83;17.67;;;5.30;99.90;;;3.36;100.00;99301.09;5006428;27;100563;-63
2020/12/08 05:59:12;;;;;;;24.00;16.87;;;5.40;99.90;;;3.36;100.00;99300.25;5006040;27;100277;-64
2020/12/08 06:01:49;;;;;;;20.47;16.67;;;5.40;99.90;;;3.38;100.00;99309.72;5025318;27;100201;-63
2020/12/08 06:04:15;;;;;;;21.93;15.97;;;6.40;99.90;;;3.38;100.00;99303.59;5027605;27;100146;-63
2020/12/08 06:06:49;;;;;;;24.30;18.63;;;5.30;99.90;;;3.38;100.00;99308.88;5026349;27;101071;-63
2020/12/08 06:09:23;;;;;;;22.67;17.90;;;5.60;99.90;;;3.41;100.00;99314.75;5026361;27;101449;-62
2020/12/08 06:11:50;;;;;;;24.53;19.07;;;5.30;99.90;;;3.43;100.00;99319.91;5026405;27;100125;-62
2020/12/08 06:14:16;;;;;;;23.83;18.83;;;5.30;99.90;;;3.37;100.00;99307.22;5026968;27;100076;-63
2020/12/08 06:16:43;;;;;;;22.77;17.57;;;5.20;99.90;;;3.38;100.00;99312.38;5026408;27;101597;-64
2020/12/08 06:19:10;;;;;;;22.70;18.07;;;5.40;99.90;;;3.35;100.00;99309.16;5026596;27;100892;-63
2020/12/08 06:21:39;;;;;;;24.30;17.93;;;5.20;99.90;;;3.32;100.00;99309.44;5026750;27;100309;-63
2020/12/08 06:24:05;;;;;;;26.13;18.30;;;5.20;99.90;;;3.30;100.00;99308.75;5026922;27;100190;-63
2020/12/08 06:26:36;;;;;;;24.43;18.10;;;5.10;99.90;;;3.33;100.00;99301.38;5025385;27;100805;-62
2020/12/08 06:29:08;;;;;;;26.23;18.33;;;5.00;99.90;;;3.32;100.00;99305.00;5010124;27;101136;-63
2020/12/08 06:31:42;;;;;;;25.17;18.57;;;5.30;99.90;;;3.31;100.00;99308.59;5005432;27;100285;-63
2020/12/08 06:34:10;;;;;;;24.20;17.53;;;5.00;99.90;;;3.36;100.00;99308.19;5004551;27;99942;-63
2020/12/08 06:36:37;;;;;;;22.53;17.63;;;5.20;99.90;;;3.41;100.00;99313.91;5002756;27;100872;-62
2020/12/08 06:39:06;;;;;;;27.87;19.50;;;5.10;99.90;;;3.34;100.00;99316.25;5003876;27;101378;-63
2020/12/08 06:41:34;;;;;;;25.23;19.20;;;4.80;99.90;;;3.32;100.00;99326.16;5004016;27;100286;-64
2020/12/08 06:44:03;;;;;;;26.20;20.30;;;4.90;99.90;;;3.33;100.00;99317.25;5003936;27;99939;-63
2020/12/08 06:46:29;;;;;;;26.87;20.30;;;4.80;99.90;;;3.31;100.00;99335.03;5003585;27;100810;-63
2020/12/08 06:49:01;;;;;;;29.77;22.27;;;4.20;99.90;;;3.08;100.00;99341.50;5003086;27;101649;-62
2020/12/08 06:51:30;;;;;;;30.83;22.77;;;4.70;99.90;;;3.09;100.00;99338.72;5003441;27;99933;-62
2020/12/08 06:53:56;;;;;;;28.57;20.70;;;4.70;99.90;;;3.02;100.00;99345.50;5004109;27;100391;-64
2020/12/08 06:56:31;;;;;;;27.70;19.57;;;4.50;99.90;;;3.02;100.00;99344.69;5014928;27;100080;-64
2020/12/08 06:58:57;;;;;;;29.13;21.43;;;4.40;99.90;;;2.95;100.00;99347.03;5023739;27;101015;-64
2020/12/08 07:01:24;;;;;;;25.20;19.80;;;4.60;99.90;;;2.86;100.00;99351.28;5023060;27;100221;-64
2020/12/08 07:03:52;;;;;;;25.20;18.97;;;4.40;99.90;;;2.72;100.00;99361.38;5023966;27;99950;-62
2020/12/08 07:06:18;;;;;;;24.03;18.13;;;4.90;99.90;;;2.64;100.00;99364.66;5022912;27;101203;-62
2020/12/08 07:08:47;;;;;;;24.83;17.67;;;4.40;99.90;;;2.65;100.00;99365.50;5023844;27;100867;-62
2020/12/08 07:11:18;;;;;;;23.27;18.67;;;5.90;99.90;;;2.63;100.00;99367.41;5023512;27;99972;-62
2020/12/08 07:13:56;;;;;;;27.13;19.70;;;4.20;99.90;;;2.48;100.00;99370.38;5023800;27;100322;-63
2020/12/08 07:16:25;;;;;;;24.47;18.93;;;4.10;99.90;;;2.51;100.00;99370.13;5026144;27;100801;-63
2020/12/08 07:18:52;;;;;;;26.33;18.67;;;4.10;99.90;;;2.45;100.00;99378.59;5027488;27;101190;-63
2020/12/08 07:21:20;;;;;;;26.50;20.07;;;4.20;99.90;;;2.42;100.00;99376.19;5026577;27;100118;-62
2020/12/08 07:23:47;;;;;;;26.60;19.67;;;4.10;99.90;;;2.46;100.00;99372.34;5015669;27;100162;-62
2020/12/08 07:26:15;;;;;;;25.27;19.00;;;4.00;99.90;;;2.37;100.00;99367.81;5005305;27;101084;-63
2020/12/08 07:28:45;;;;;;;26.50;18.87;;;4.10;99.90;;;2.40;100.00;99369.38;5006346;27;100618;-63
2020/12/08 07:31:20;;;;;;;24.60;18.80;;;4.20;99.90;;;2.40;100.00;99377.28;5006530;27;99959;-63
2020/12/08 07:33:47;;;;;;;26.63;17.77;;;4.30;99.90;;;2.45;100.00;99375.09;5006170;27;100178;-63
2020/12/08 07:36:22;;;;;;;25.63;16.80;;;4.20;99.90;;;2.61;100.00;99379.91;5006271;27;100586;-63
2020/12/08 07:38:52;;;;;;;25.33;16.97;;;4.40;99.90;;;2.68;100.00;99376.66;5006918;27;100489;-63
2020/12/08 07:41:20;;;;;;;21.43;16.90;;;4.60;99.90;;;2.81;100.00;99374.63;5005957;27;100334;-62
2020/12/08 07:43:47;;;;;;;22.93;16.43;;;4.70;99.90;;;2.85;100.00;99383.94;5007122;27;100009;-63
2020/12/08 07:46:21;;;;;;;23.33;16.30;;;4.80;99.90;;;2.96;100.00;99388.34;5006347;27;100610;-63
2020/12/08 07:48:59;;;;;;;22.47;16.37;;;5.20;99.90;;;3.01;100.00;99387.94;5003797;27;100882;-62
2020/12/08 07:51:27;;;;;;;22.03;16.67;;;5.30;99.90;;;2.99;100.00;99387.22;5006923;27;100084;-63
2020/12/08 07:53:55;;;;;;;23.10;18.17;;;5.50;99.90;;;3.11;100.00;99379.06;5006455;27;100225;-63
2020/12/08 07:56:26;;;;;;;22.67;16.47;;;5.70;99.90;;;3.20;100.00;99386.22;5005744;27;101267;-63
2020/12/08 07:58:52;;;;;;;21.83;16.40;;;6.00;99.90;;;3.25;100.00;99385.81;5005622;27;100575;-63
2020/12/08 08:01:19;;;;;;;22.80;17.30;;;6.20;99.90;;;3.29;100.00;99387.22;5006244;27;100738;-63
2020/12/08 08:03:45;;;;;;;20.30;16.67;;;6.30;99.90;;;3.42;100.00;99394.91;5006256;27;99904;-64
2020/12/08 08:06:14;;;;;;;21.73;16.23;;;6.50;99.90;;;3.49;100.00;99396.03;5005737;27;100844;-62
2020/12/08 08:08:40;;;;;;;21.50;14.97;;;6.70;99.90;;;3.67;100.00;99399.72;5006040;27;100577;-63
2020/12/08 08:11:08;;;;;;;17.90;15.53;;;6.80;99.90;;;3.76;100.00;99398.91;5005651;27;100075;-63
2020/12/08 08:13:35;;;;;;;18.97;15.37;;;7.10;99.90;;;3.75;100.00;99402.50;5006190;27;100336;-62
2020/12/08 08:16:01;;;;;;;17.87;14.33;;;7.30;99.90;;;3.85;100.00;99394.56;5005486;27;100985;-63
2020/12/08 08:18:27;;;;;;;18.30;14.73;;;7.40;99.90;;;4.05;100.00;99398.94;5008103;27;100562;-62
2020/12/08 08:20:54;;;;;;;18.47;14.93;;;7.60;99.90;;;4.08;100.00;99401.28;5025967;27;100170;-63
2020/12/08 08:23:20;;;;;;;17.27;13.77;;;7.80;99.90;;;4.15;100.00;99394.47;5026587;27;100271;-63
2020/12/08 08:25:47;;;;;;;19.30;14.57;;;8.10;99.90;;;4.21;100.00;99391.25;5025649;27;100470;-63
2020/12/08 08:28:14;;;;;;;19.40;12.87;;;8.10;99.90;;;4.28;100.00;99395.03;5025252;27;101341;-63
2020/12/08 08:30:40;;;;;;;14.30;12.37;;;8.40;99.90;;;4.40;100.00;99387.78;5025158;27;100112;-63
2020/12/08 08:33:07;;;;;;;17.93;14.50;;;8.60;99.90;;;4.68;100.00;99384.25;5025986;27;100155;-63
2020/12/08 08:35:33;;;;;;;17.63;14.73;;;8.80;99.90;;;4.89;100.00;99383.22;5025261;27;101231;-63
2020/12/08 08:38:00;;;;;;;18.40;14.80;;;9.10;99.90;;;4.78;100.00;99391.34;5025089;27;100946;-63
2020/12/08 08:40:26;;;;;;;17.33;14.57;;;9.30;99.90;;;4.89;100.00;99385.88;5024984;27;100119;-63
2020/12/08 08:42:55;;;;;;;17.53;15.60;;;9.70;99.90;;;4.86;100.00;99394.09;5023535;27;99927;-63
2020/12/08 08:45:22;;;;;;;18.80;13.97;;;9.80;99.90;;;5.09;100.00;99394.59;5024980;27;101038;-63
2020/12/08 08:47:49;;;;;;;15.47;13.20;;;10.30;99.90;;;5.04;100.00;99390.59;5024496;27;100475;-63
2020/12/08 08:50:15;;;;;;;16.27;12.87;;;10.60;99.90;;;5.24;100.00;99391.34;5024780;27;100332;-63
2020/12/08 08:52:42;;;;;;;13.97;12.47;;;10.40;99.90;;;4.99;100.00;99392.81;5024960;27;100015;-63
2020/12/08 08:55:10;;;;;;;16.73;12.10;;;11.80;99.90;;;5.30;100.00;99395.22;5024104;27;100738;-63
2020/12/08 08:57:37;;;;;;;13.97;12.33;;;10.80;99.90;;;5.30;100.00;99393.41;5024876;27;101636;-62
2020/12/08 09:00:06;;;;;;;13.63;12.10;;;11.60;99.80;;;5.07;100.00;99401.88;5024364;27;100166;-62
2020/12/08 09:02:33;;;;;;;14.37;11.47;;;11.70;98.30;;;5.25;100.00;99397.47;5025097;27;100118;-62
2020/12/08 09:05:00;;;;;;;15.10;12.00;;;11.20;96.80;;;5.27;100.00;99395.50;5024150;27;101739;-62
2020/12/08 09:07:29;;;;;;;15.93;12.83;;;11.40;96.30;;;5.32;100.00;99402.03;5025234;27;100854;-62
2020/12/08 09:09:56;;;;;;;13.97;11.60;;;11.50;95.10;;;5.37;100.00;99412.22;5024818;27;100057;-63
2020/12/08 09:12:23;;;;;;;15.53;12.27;;;11.30;95.50;;;5.54;100.00;99394.69;5025295;27;100172;-62
2020/12/08 09:14:51;;;;;;;13.80;10.97;;;11.50;94.10;;;5.89;100.00;99393.94;5015458;27;101026;-63
2020/12/08 09:17:18;;;;;;;16.20;12.57;;;11.50;93.50;;;5.60;100.00;99391.44;5004498;27;101298;-63
2020/12/08 09:19:45;;;;;;;14.27;11.70;;;10.60;91.20;;;5.75;100.00;99403.22;5004667;27;100259;-63
2020/12/08 09:22:12;;;;;;;14.97;11.63;;;11.40;92.50;;;5.93;100.00;99395.34;5003266;27;100278;-63
2020/12/08 09:24:38;;;;;;;15.07;11.27;;;11.70;92.20;;;5.94;100.00;99396.97;5004189;27;101261;-63
2020/12/08 09:27:06;;;;;;;11.73;10.53;;;11.70;91.40;;;6.13;100.00;99387.06;5004210;27;101526;-62
2020/12/08 09:29:33;;;;;;;14.73;12.07;;;11.90;91.80;;;6.19;100.00;99388.25;5004329;27;99940;-63
2020/12/08 09:32:00;;;;;;;12.57;11.20;;;12.20;91.20;;;5.99;100.00;99384.09;5004659;27;100193;-63
2020/12/08 09:34:27;;;;;;;12.17;10.43;;;12.50;88.60;;;6.11;100.00;99383.72;5004157;27;101696;-62
2020/12/08 09:36:56;;;;;;;11.70;10.47;;;12.60;85.60;;;6.19;100.00;99382.94;5000881;27;103189;-62
2020/12/08 09:39:23;;;;;;;13.90;10.07;;;12.10;86.10;;;6.34;100.00;99385.91;5004621;27;100229;-62
2020/12/08 09:41:49;;;;;;;11.80;9.70;;;12.10;86.50;;;6.11;100.00;99383.72;5005601;27;100221;-63
2020/12/08 09:44:16;;;;;;;11.27;9.13;;;12.40;83.00;;;6.21;100.00;99383.63;5007687;27;101744;-63
2020/12/08 09:46:44;;;;;;;10.70;9.60;;;12.20;82.70;;;6.36;100.00;99376.81;5024579;27;101276;-62
2020/12/08 09:49:12;;;;;;;10.47;9.10;;;12.30;82.40;;;6.31;100.00;99384.38;5024250;27;100402;-62
2020/12/08 09:51:39;;;;;;;10.27;9.23;;;13.40;81.20;;;6.60;100.00;99389.44;5025094;27;100416;-62
2020/12/08 09:54:07;;;;;;;9.70;7.73;;;12.50;78.90;;;6.47;100.00;99383.69;5023197;27;101267;-62
2020/12/08 09:56:33;;;;;;;10.37;9.37;;;12.30;76.90;;;6.53;100.00;99384.91;5025532;27;100660;-63
2020/12/08 09:59:00;;;;;;;10.63;9.53;;;12.20;76.90;;;6.74;100.00;99374.75;5024232;27;100244;-64
2020/12/08 10:01:26;;;;;;;8.57;7.33;;;12.40;77.20;;;6.73;100.00;99381.06;5024595;27;100397;-63
2020/12/08 10:03:53;;;;;;;10.00;8.70;;;12.30;76.60;;;6.62;100.00;99374.19;5024223;27;100549;-63
2020/12/08 10:06:20;;;;;;;9.50;7.97;;;13.50;76.30;;;6.49;100.00;99365.78;5023975;27;100982;-63
2020/12/08 10:08:47;;;;;;;8.83;7.93;;;13.10;74.90;;;6.53;100.00;99369.81;5025201;27;99909;-63
2020/12/08 10:11:15;;;;;;;9.67;8.67;;;12.30;73.60;;;6.64;100.00;99361.56;5009205;27;100177;-63